sensor_id;sensor_type;location;lat;lon;timestamp;P1;durP1;ratioP1;P2;durP2;ratioP2
691;SDS011;328;50.086;8.576;2022-12-18T00:02:30;24.17;;;11.68;;
691;SDS011;328;50.086;8.576;2022-12-18T00:04:58;34.25;;;15.18;;
691;SDS011;328;50.086;8.576;2022-12-18T00:07:31;32.13;;;15.68;;
691;SDS011;328;50.086;8.576;2022-12-18T00:10:05;28.65;;;13.68;;
691;SDS011;328;50.086;8.576;2022-12-18T00:12:33;19.30;;;9.88;;
691;SDS011;328;50.086;8.576;2022-12-18T00:15:04;23.17;;;11.05;;
691;SDS011;328;50.086;8.576;2022-12-18T00:17:33;27.35;;;12.60;;
691;SDS011;328;50.086;8.576;2022-12-18T00:20:13;21.55;;;10.88;;
691;SDS011;328;50.086;8.576;2022-12-18T00:22:45;24.83;;;10.90;;
691;SDS011;328;50.086;8.576;2022-12-18T00:25:14;22.92;;;11.98;;
691;SDS011;328;50.086;8.576;2022-12-18T00:27:47;20.10;;;9.95;;
691;SDS011;328;50.086;8.576;2022-12-18T00:30:18;25.35;;;14.45;;
691;SDS011;328;50.086;8.576;2022-12-18T00:32:48;20.25;;;11.32;;
691;SDS011;328;50.086;8.576;2022-12-18T00:35:18;36.35;;;13.77;;
691;SDS011;328;50.086;8.576;2022-12-18T00:37:50;31.40;;;11.90;;
691;SDS011;328;50.086;8.576;2022-12-18T00:40:22;26.02;;;11.10;;
691;SDS011;328;50.086;8.576;2022-12-18T00:42:54;23.38;;;10.85;;
691;SDS011;328;50.086;8.576;2022-12-18T00:45:23;23.60;;;11.60;;
691;SDS011;328;50.086;8.576;2022-12-18T00:47:54;15.90;;;9.38;;
691;SDS011;328;50.086;8.576;2022-12-18T00:50:26;24.65;;;11.25;;
691;SDS011;328;50.086;8.576;2022-12-18T00:52:56;21.08;;;11.82;;
691;SDS011;328;50.086;8.576;2022-12-18T00:55:23;30.13;;;12.02;;
691;SDS011;328;50.086;8.576;2022-12-18T00:57:51;27.35;;;11.63;;
691;SDS011;328;50.086;8.576;2022-12-18T01:00:19;19.60;;;10.93;;
691;SDS011;328;50.086;8.576;2022-12-18T01:02:47;19.55;;;9.77;;
691;SDS011;328;50.086;8.576;2022-12-18T01:05:15;22.05;;;9.35;;
691;SDS011;328;50.086;8.576;2022-12-18T01:07:43;19.90;;;10.15;;
691;SDS011;328;50.086;8.576;2022-12-18T01:10:19;16.55;;;9.68;;
691;SDS011;328;50.086;8.576;2022-12-18T01:12:46;24.45;;;11.05;;
691;SDS011;328;50.086;8.576;2022-12-18T01:15:14;23.27;;;9.80;;
691;SDS011;328;50.086;8.576;2022-12-18T01:17:43;28.15;;;12.25;;
691;SDS011;328;50.086;8.576;2022-12-18T01:20:11;22.23;;;12.20;;
691;SDS011;328;50.086;8.576;2022-12-18T01:22:39;17.90;;;10.98;;
691;SDS011;328;50.086;8.576;2022-12-18T01:25:07;23.75;;;11.35;;
691;SDS011;328;50.086;8.576;2022-12-18T01:27:37;24.00;;;12.80;;
691;SDS011;328;50.086;8.576;2022-12-18T01:30:05;18.00;;;11.93;;
691;SDS011;328;50.086;8.576;2022-12-18T01:32:35;29.35;;;11.80;;
691;SDS011;328;50.086;8.576;2022-12-18T01:35:03;28.60;;;11.02;;
691;SDS011;328;50.086;8.576;2022-12-18T01:37:32;18.17;;;9.38;;
691;SDS011;328;50.086;8.576;2022-12-18T01:40:02;17.85;;;9.73;;
691;SDS011;328;50.086;8.576;2022-12-18T01:42:31;23.45;;;10.23;;
691;SDS011;328;50.086;8.576;2022-12-18T01:45:01;18.83;;;8.73;;
691;SDS011;328;50.086;8.576;2022-12-18T01:47:35;17.85;;;8.10;;
691;SDS011;328;50.086;8.576;2022-12-18T01:50:06;18.30;;;7.13;;
691;SDS011;328;50.086;8.576;2022-12-18T01:52:35;11.88;;;8.15;;
691;SDS011;328;50.086;8.576;2022-12-18T01:55:04;20.90;;;10.18;;
691;SDS011;328;50.086;8.576;2022-12-18T01:57:32;19.20;;;8.20;;
691;SDS011;328;50.086;8.576;2022-12-18T02:00:03;17.40;;;10.10;;
691;SDS011;328;50.086;8.576;2022-12-18T02:02:36;14.23;;;7.78;;
691;SDS011;328;50.086;8.576;2022-12-18T02:05:05;16.70;;;8.82;;
691;SDS011;328;50.086;8.576;2022-12-18T02:07:37;20.23;;;9.85;;
691;SDS011;328;50.086;8.576;2022-12-18T02:10:09;17.20;;;9.48;;
691;SDS011;328;50.086;8.576;2022-12-18T02:12:42;22.10;;;11.27;;
691;SDS011;328;50.086;8.576;2022-12-18T02:15:13;20.05;;;10.52;;
691;SDS011;328;50.086;8.576;2022-12-18T02:17:43;21.83;;;9.02;;
691;SDS011;328;50.086;8.576;2022-12-18T02:20:16;17.38;;;9.40;;
691;SDS011;328;50.086;8.576;2022-12-18T02:22:55;16.80;;;9.80;;
691;SDS011;328;50.086;8.576;2022-12-18T02:25:33;16.35;;;8.05;;
691;SDS011;328;50.086;8.576;2022-12-18T02:28:23;20.13;;;11.63;;
691;SDS011;328;50.086;8.576;2022-12-18T02:30:53;14.90;;;6.40;;
691;SDS011;328;50.086;8.576;2022-12-18T02:33:23;17.52;;;10.18;;
691;SDS011;328;50.086;8.576;2022-12-18T02:35:51;23.92;;;11.85;;
691;SDS011;328;50.086;8.576;2022-12-18T02:38:21;16.38;;;8.75;;
691;SDS011;328;50.086;8.576;2022-12-18T02:40:49;16.88;;;9.57;;
691;SDS011;328;50.086;8.576;2022-12-18T02:43:17;17.52;;;10.10;;
691;SDS011;328;50.086;8.576;2022-12-18T02:45:50;28.27;;;8.48;;
691;SDS011;328;50.086;8.576;2022-12-18T02:48:23;16.52;;;9.40;;
691;SDS011;328;50.086;8.576;2022-12-18T02:50:54;18.77;;;8.45;;
691;SDS011;328;50.086;8.576;2022-12-18T02:53:28;17.45;;;10.15;;
691;SDS011;328;50.086;8.576;2022-12-18T02:56:00;31.90;;;13.57;;
691;SDS011;328;50.086;8.576;2022-12-18T02:58:32;17.02;;;9.85;;
691;SDS011;328;50.086;8.576;2022-12-18T03:01:03;18.27;;;8.32;;
691;SDS011;328;50.086;8.576;2022-12-18T03:03:35;18.63;;;9.18;;
691;SDS011;328;50.086;8.576;2022-12-18T03:06:05;24.48;;;8.15;;
691;SDS011;328;50.086;8.576;2022-12-18T03:08:36;16.13;;;7.72;;
691;SDS011;328;50.086;8.576;2022-12-18T03:11:05;13.95;;;7.78;;
691;SDS011;328;50.086;8.576;2022-12-18T03:13:35;13.75;;;7.20;;
691;SDS011;328;50.086;8.576;2022-12-18T03:16:07;21.80;;;10.43;;
691;SDS011;328;50.086;8.576;2022-12-18T03:18:37;25.40;;;10.05;;
691;SDS011;328;50.086;8.576;2022-12-18T03:21:07;27.13;;;10.32;;
691;SDS011;328;50.086;8.576;2022-12-18T03:23:38;26.08;;;11.52;;
691;SDS011;328;50.086;8.576;2022-12-18T03:26:09;23.90;;;12.10;;
691;SDS011;328;50.086;8.576;2022-12-18T03:28:38;16.85;;;7.85;;
691;SDS011;328;50.086;8.576;2022-12-18T03:31:09;31.13;;;9.68;;
691;SDS011;328;50.086;8.576;2022-12-18T03:33:39;23.10;;;13.00;;
691;SDS011;328;50.086;8.576;2022-12-18T03:36:08;17.45;;;9.82;;
691;SDS011;328;50.086;8.576;2022-12-18T03:38:39;25.65;;;11.27;;
691;SDS011;328;50.086;8.576;2022-12-18T03:41:08;20.30;;;9.73;;
691;SDS011;328;50.086;8.576;2022-12-18T03:43:43;17.15;;;8.60;;
691;SDS011;328;50.086;8.576;2022-12-18T03:46:20;16.98;;;9.77;;
691;SDS011;328;50.086;8.576;2022-12-18T03:48:52;21.98;;;8.15;;
691;SDS011;328;50.086;8.576;2022-12-18T03:51:26;20.75;;;7.75;;
691;SDS011;328;50.086;8.576;2022-12-18T03:54:01;17.08;;;6.63;;
691;SDS011;328;50.086;8.576;2022-12-18T03:56:30;24.30;;;9.80;;
691;SDS011;328;50.086;8.576;2022-12-18T03:59:00;17.08;;;9.98;;
691;SDS011;328;50.086;8.576;2022-12-18T04:01:31;31.25;;;10.73;;
691;SDS011;328;50.086;8.576;2022-12-18T04:04:00;18.60;;;8.85;;
691;SDS011;328;50.086;8.576;2022-12-18T04:06:28;25.00;;;10.10;;
691;SDS011;328;50.086;8.576;2022-12-18T04:08:57;21.13;;;10.82;;
691;SDS011;328;50.086;8.576;2022-12-18T04:11:25;18.15;;;9.48;;
691;SDS011;328;50.086;8.576;2022-12-18T04:13:56;19.50;;;10.63;;
691;SDS011;328;50.086;8.576;2022-12-18T04:16:24;32.92;;;11.73;;
691;SDS011;328;50.086;8.576;2022-12-18T04:18:53;16.25;;;9.00;;
691;SDS011;328;50.086;8.576;2022-12-18T04:21:21;14.60;;;7.47;;
691;SDS011;328;50.086;8.576;2022-12-18T04:23:48;17.27;;;10.68;;
691;SDS011;328;50.086;8.576;2022-12-18T04:26:16;26.83;;;12.65;;
691;SDS011;328;50.086;8.576;2022-12-18T04:28:43;22.40;;;10.93;;
691;SDS011;328;50.086;8.576;2022-12-18T04:31:11;22.45;;;8.55;;
691;SDS011;328;50.086;8.576;2022-12-18T04:33:39;19.90;;;10.23;;
691;SDS011;328;50.086;8.576;2022-12-18T04:36:09;22.17;;;10.18;;
691;SDS011;328;50.086;8.576;2022-12-18T04:38:38;22.17;;;12.07;;
691;SDS011;328;50.086;8.576;2022-12-18T04:41:06;14.63;;;8.25;;
691;SDS011;328;50.086;8.576;2022-12-18T04:43:33;23.60;;;10.95;;
691;SDS011;328;50.086;8.576;2022-12-18T04:46:02;16.60;;;8.55;;
691;SDS011;328;50.086;8.576;2022-12-18T04:48:30;19.70;;;10.15;;
691;SDS011;328;50.086;8.576;2022-12-18T04:50:58;18.02;;;10.07;;
691;SDS011;328;50.086;8.576;2022-12-18T04:53:26;21.30;;;10.85;;
691;SDS011;328;50.086;8.576;2022-12-18T04:56:02;19.58;;;10.50;;
691;SDS011;328;50.086;8.576;2022-12-18T04:58:30;15.18;;;7.40;;
691;SDS011;328;50.086;8.576;2022-12-18T05:00:58;25.50;;;10.15;;
691;SDS011;328;50.086;8.576;2022-12-18T05:03:25;21.13;;;11.45;;
691;SDS011;328;50.086;8.576;2022-12-18T05:05:53;21.55;;;9.88;;
691;SDS011;328;50.086;8.576;2022-12-18T05:08:21;19.73;;;8.30;;
691;SDS011;328;50.086;8.576;2022-12-18T05:10:50;15.45;;;8.13;;
691;SDS011;328;50.086;8.576;2022-12-18T05:13:25;17.52;;;8.98;;
691;SDS011;328;50.086;8.576;2022-12-18T05:15:53;13.95;;;6.03;;
691;SDS011;328;50.086;8.576;2022-12-18T05:18:21;13.50;;;8.63;;
691;SDS011;328;50.086;8.576;2022-12-18T05:20:48;19.95;;;9.50;;
691;SDS011;328;50.086;8.576;2022-12-18T05:23:16;18.33;;;11.13;;
691;SDS011;328;50.086;8.576;2022-12-18T05:25:46;18.20;;;9.30;;
691;SDS011;328;50.086;8.576;2022-12-18T05:28:19;18.00;;;8.80;;
691;SDS011;328;50.086;8.576;2022-12-18T05:30:47;23.17;;;10.27;;
691;SDS011;328;50.086;8.576;2022-12-18T05:33:16;16.88;;;8.73;;
691;SDS011;328;50.086;8.576;2022-12-18T05:35:44;18.00;;;8.60;;
691;SDS011;328;50.086;8.576;2022-12-18T05:38:11;16.92;;;8.65;;
691;SDS011;328;50.086;8.576;2022-12-18T05:40:41;15.65;;;8.05;;
691;SDS011;328;50.086;8.576;2022-12-18T05:43:10;84.95;;;34.50;;
691;SDS011;328;50.086;8.576;2022-12-18T05:45:46;29.63;;;14.32;;
691;SDS011;328;50.086;8.576;2022-12-18T05:48:13;43.10;;;22.00;;
691;SDS011;328;50.086;8.576;2022-12-18T05:50:42;28.70;;;13.35;;
691;SDS011;328;50.086;8.576;2022-12-18T05:53:11;87.28;;;36.78;;
691;SDS011;328;50.086;8.576;2022-12-18T05:55:40;33.83;;;17.20;;
691;SDS011;328;50.086;8.576;2022-12-18T05:58:08;23.15;;;10.80;;
691;SDS011;328;50.086;8.576;2022-12-18T06:00:38;67.45;;;26.25;;
691;SDS011;328;50.086;8.576;2022-12-18T06:03:10;77.95;;;28.50;;
691;SDS011;328;50.086;8.576;2022-12-18T06:05:39;85.97;;;31.92;;
691;SDS011;328;50.086;8.576;2022-12-18T06:08:07;68.20;;;26.05;;
691;SDS011;328;50.086;8.576;2022-12-18T06:10:36;23.02;;;12.73;;
691;SDS011;328;50.086;8.576;2022-12-18T06:13:04;28.02;;;15.80;;
691;SDS011;328;50.086;8.576;2022-12-18T06:15:31;20.95;;;14.52;;
691;SDS011;328;50.086;8.576;2022-12-18T06:18:01;19.15;;;10.95;;
691;SDS011;328;50.086;8.576;2022-12-18T06:20:28;26.50;;;12.52;;
691;SDS011;328;50.086;8.576;2022-12-18T06:22:59;17.35;;;11.88;;
691;SDS011;328;50.086;8.576;2022-12-18T06:25:26;16.27;;;9.90;;
691;SDS011;328;50.086;8.576;2022-12-18T06:27:54;19.17;;;10.40;;
691;SDS011;328;50.086;8.576;2022-12-18T06:30:22;17.27;;;9.35;;
691;SDS011;328;50.086;8.576;2022-12-18T06:32:49;20.27;;;12.43;;
691;SDS011;328;50.086;8.576;2022-12-18T06:35:23;19.48;;;11.40;;
691;SDS011;328;50.086;8.576;2022-12-18T06:37:51;24.73;;;12.40;;
691;SDS011;328;50.086;8.576;2022-12-18T06:40:18;28.40;;;15.95;;
691;SDS011;328;50.086;8.576;2022-12-18T06:42:46;35.00;;;13.07;;
691;SDS011;328;50.086;8.576;2022-12-18T06:45:13;21.42;;;12.43;;
691;SDS011;328;50.086;8.576;2022-12-18T06:47:41;31.23;;;15.68;;
691;SDS011;328;50.086;8.576;2022-12-18T06:50:09;19.90;;;12.85;;
691;SDS011;328;50.086;8.576;2022-12-18T06:52:38;20.92;;;9.30;;
691;SDS011;328;50.086;8.576;2022-12-18T06:55:06;22.08;;;11.65;;
691;SDS011;328;50.086;8.576;2022-12-18T06:57:35;15.35;;;8.45;;
691;SDS011;328;50.086;8.576;2022-12-18T07:00:04;27.75;;;13.30;;
691;SDS011;328;50.086;8.576;2022-12-18T07:02:33;17.48;;;9.43;;
691;SDS011;328;50.086;8.576;2022-12-18T07:05:01;20.02;;;9.40;;
691;SDS011;328;50.086;8.576;2022-12-18T07:07:35;17.95;;;10.60;;
691;SDS011;328;50.086;8.576;2022-12-18T07:10:05;23.27;;;8.55;;
691;SDS011;328;50.086;8.576;2022-12-18T07:12:33;18.08;;;11.20;;
691;SDS011;328;50.086;8.576;2022-12-18T07:15:00;20.02;;;9.70;;
691;SDS011;328;50.086;8.576;2022-12-18T07:17:28;24.27;;;12.90;;
691;SDS011;328;50.086;8.576;2022-12-18T07:19:55;23.15;;;12.32;;
691;SDS011;328;50.086;8.576;2022-12-18T07:22:24;17.02;;;8.50;;
691;SDS011;328;50.086;8.576;2022-12-18T07:24:53;22.15;;;11.00;;
691;SDS011;328;50.086;8.576;2022-12-18T07:27:21;21.13;;;10.45;;
691;SDS011;328;50.086;8.576;2022-12-18T07:29:49;21.73;;;9.85;;
691;SDS011;328;50.086;8.576;2022-12-18T07:32:17;24.00;;;11.63;;
691;SDS011;328;50.086;8.576;2022-12-18T07:34:44;12.13;;;8.60;;
691;SDS011;328;50.086;8.576;2022-12-18T07:37:12;19.52;;;11.55;;
691;SDS011;328;50.086;8.576;2022-12-18T07:39:40;23.27;;;11.93;;
691;SDS011;328;50.086;8.576;2022-12-18T07:42:08;16.48;;;10.60;;
691;SDS011;328;50.086;8.576;2022-12-18T07:44:54;17.50;;;8.80;;
691;SDS011;328;50.086;8.576;2022-12-18T07:47:22;14.52;;;9.20;;
691;SDS011;328;50.086;8.576;2022-12-18T07:49:49;21.42;;;12.77;;
691;SDS011;328;50.086;8.576;2022-12-18T07:52:17;21.85;;;10.98;;
691;SDS011;328;50.086;8.576;2022-12-18T07:54:51;21.85;;;12.05;;
691;SDS011;328;50.086;8.576;2022-12-18T07:57:20;17.98;;;9.27;;
691;SDS011;328;50.086;8.576;2022-12-18T08:00:08;18.05;;;12.52;;
691;SDS011;328;50.086;8.576;2022-12-18T08:02:36;28.02;;;12.75;;
691;SDS011;328;50.086;8.576;2022-12-18T08:05:04;23.98;;;10.43;;
691;SDS011;328;50.086;8.576;2022-12-18T08:07:32;31.95;;;12.57;;
691;SDS011;328;50.086;8.576;2022-12-18T08:09:59;20.42;;;12.02;;
691;SDS011;328;50.086;8.576;2022-12-18T08:12:28;18.88;;;12.13;;
691;SDS011;328;50.086;8.576;2022-12-18T08:14:56;18.02;;;10.82;;
691;SDS011;328;50.086;8.576;2022-12-18T08:17:23;17.15;;;9.93;;
691;SDS011;328;50.086;8.576;2022-12-18T08:19:51;20.25;;;11.75;;
691;SDS011;328;50.086;8.576;2022-12-18T08:22:18;18.80;;;10.63;;
691;SDS011;328;50.086;8.576;2022-12-18T08:24:46;26.17;;;12.88;;
691;SDS011;328;50.086;8.576;2022-12-18T08:27:14;29.83;;;12.65;;
691;SDS011;328;50.086;8.576;2022-12-18T08:29:59;23.17;;;11.23;;
691;SDS011;328;50.086;8.576;2022-12-18T08:32:27;20.10;;;10.85;;
691;SDS011;328;50.086;8.576;2022-12-18T08:35:05;20.92;;;11.52;;
691;SDS011;328;50.086;8.576;2022-12-18T08:37:35;36.20;;;11.90;;
691;SDS011;328;50.086;8.576;2022-12-18T08:40:03;24.13;;;11.73;;
691;SDS011;328;50.086;8.576;2022-12-18T08:42:33;20.95;;;10.57;;
691;SDS011;328;50.086;8.576;2022-12-18T08:45:23;21.75;;;12.55;;
691;SDS011;328;50.086;8.576;2022-12-18T08:47:50;32.70;;;13.02;;
691;SDS011;328;50.086;8.576;2022-12-18T08:50:18;22.90;;;11.45;;
691;SDS011;328;50.086;8.576;2022-12-18T08:52:46;26.98;;;14.80;;
691;SDS011;328;50.086;8.576;2022-12-18T08:55:14;21.40;;;12.32;;
691;SDS011;328;50.086;8.576;2022-12-18T08:57:42;48.13;;;25.25;;
691;SDS011;328;50.086;8.576;2022-12-18T09:00:10;35.38;;;20.88;;
691;SDS011;328;50.086;8.576;2022-12-18T09:02:41;31.60;;;15.27;;
691;SDS011;328;50.086;8.576;2022-12-18T09:05:09;26.88;;;14.27;;
691;SDS011;328;50.086;8.576;2022-12-18T09:07:37;27.35;;;15.00;;
691;SDS011;328;50.086;8.576;2022-12-18T09:10:05;29.23;;;16.50;;
691;SDS011;328;50.086;8.576;2022-12-18T09:12:33;31.75;;;17.20;;
691;SDS011;328;50.086;8.576;2022-12-18T09:15:01;34.95;;;17.27;;
691;SDS011;328;50.086;8.576;2022-12-18T09:17:29;31.83;;;19.00;;
691;SDS011;328;50.086;8.576;2022-12-18T09:19:58;31.33;;;16.85;;
691;SDS011;328;50.086;8.576;2022-12-18T09:22:26;41.83;;;22.83;;
691;SDS011;328;50.086;8.576;2022-12-18T09:24:54;41.05;;;21.35;;
691;SDS011;328;50.086;8.576;2022-12-18T09:27:21;36.50;;;18.48;;
691;SDS011;328;50.086;8.576;2022-12-18T09:29:49;34.55;;;19.75;;
691;SDS011;328;50.086;8.576;2022-12-18T09:32:16;29.23;;;17.50;;
691;SDS011;328;50.086;8.576;2022-12-18T09:34:47;37.22;;;20.75;;
691;SDS011;328;50.086;8.576;2022-12-18T09:37:18;30.20;;;19.45;;
691;SDS011;328;50.086;8.576;2022-12-18T09:39:46;31.25;;;16.40;;
691;SDS011;328;50.086;8.576;2022-12-18T09:42:15;34.58;;;18.02;;
691;SDS011;328;50.086;8.576;2022-12-18T09:44:45;34.97;;;20.65;;
691;SDS011;328;50.086;8.576;2022-12-18T09:47:17;31.00;;;18.15;;
691;SDS011;328;50.086;8.576;2022-12-18T09:49:48;36.10;;;17.50;;
691;SDS011;328;50.086;8.576;2022-12-18T09:52:19;26.23;;;16.05;;
691;SDS011;328;50.086;8.576;2022-12-18T09:54:50;32.75;;;18.85;;
691;SDS011;328;50.086;8.576;2022-12-18T09:57:21;38.33;;;19.73;;
691;SDS011;328;50.086;8.576;2022-12-18T09:59:51;37.85;;;21.10;;
691;SDS011;328;50.086;8.576;2022-12-18T10:02:22;31.63;;;18.95;;
691;SDS011;328;50.086;8.576;2022-12-18T10:04:55;39.83;;;22.05;;
691;SDS011;328;50.086;8.576;2022-12-18T10:07:35;22.42;;;15.98;;
691;SDS011;328;50.086;8.576;2022-12-18T10:10:14;37.78;;;23.92;;
691;SDS011;328;50.086;8.576;2022-12-18T10:12:50;36.60;;;20.05;;
691;SDS011;328;50.086;8.576;2022-12-18T10:15:30;31.55;;;18.10;;
691;SDS011;328;50.086;8.576;2022-12-18T10:18:04;30.17;;;16.50;;
691;SDS011;328;50.086;8.576;2022-12-18T10:20:47;29.95;;;17.17;;
691;SDS011;328;50.086;8.576;2022-12-18T10:23:19;37.13;;;17.38;;
691;SDS011;328;50.086;8.576;2022-12-18T10:25:51;37.20;;;19.27;;
691;SDS011;328;50.086;8.576;2022-12-18T10:28:22;31.88;;;19.98;;
691;SDS011;328;50.086;8.576;2022-12-18T10:30:50;32.20;;;18.83;;
691;SDS011;328;50.086;8.576;2022-12-18T10:33:18;37.90;;;21.50;;
691;SDS011;328;50.086;8.576;2022-12-18T10:35:48;32.17;;;17.92;;
691;SDS011;328;50.086;8.576;2022-12-18T10:38:23;33.08;;;19.65;;
691;SDS011;328;50.086;8.576;2022-12-18T10:40:52;37.97;;;18.73;;
691;SDS011;328;50.086;8.576;2022-12-18T10:43:22;38.25;;;19.10;;
691;SDS011;328;50.086;8.576;2022-12-18T10:46:01;32.22;;;16.63;;
691;SDS011;328;50.086;8.576;2022-12-18T10:48:46;43.63;;;22.95;;
691;SDS011;328;50.086;8.576;2022-12-18T10:51:19;41.85;;;20.33;;
691;SDS011;328;50.086;8.576;2022-12-18T10:53:52;44.22;;;21.55;;
691;SDS011;328;50.086;8.576;2022-12-18T10:56:23;35.40;;;18.38;;
691;SDS011;328;50.086;8.576;2022-12-18T10:58:56;33.55;;;19.42;;
691;SDS011;328;50.086;8.576;2022-12-18T11:01:25;34.75;;;18.15;;
691;SDS011;328;50.086;8.576;2022-12-18T11:04:02;38.90;;;19.77;;
691;SDS011;328;50.086;8.576;2022-12-18T11:06:35;44.92;;;22.77;;
691;SDS011;328;50.086;8.576;2022-12-18T11:09:21;38.03;;;18.25;;
691;SDS011;328;50.086;8.576;2022-12-18T11:11:50;36.95;;;19.05;;
691;SDS011;328;50.086;8.576;2022-12-18T11:14:27;42.15;;;17.40;;
691;SDS011;328;50.086;8.576;2022-12-18T11:16:56;38.60;;;19.38;;
691;SDS011;328;50.086;8.576;2022-12-18T11:19:45;36.05;;;18.48;;
691;SDS011;328;50.086;8.576;2022-12-18T11:22:20;38.33;;;17.38;;
691;SDS011;328;50.086;8.576;2022-12-18T11:24:54;40.15;;;18.85;;
691;SDS011;328;50.086;8.576;2022-12-18T11:27:47;40.33;;;20.30;;
691;SDS011;328;50.086;8.576;2022-12-18T11:30:20;38.58;;;18.25;;
691;SDS011;328;50.086;8.576;2022-12-18T11:32:49;35.67;;;18.35;;
691;SDS011;328;50.086;8.576;2022-12-18T11:35:21;35.20;;;18.23;;
691;SDS011;328;50.086;8.576;2022-12-18T11:37:54;46.78;;;21.38;;
691;SDS011;328;50.086;8.576;2022-12-18T11:40:27;42.88;;;19.23;;
691;SDS011;328;50.086;8.576;2022-12-18T11:43:06;46.38;;;18.65;;
691;SDS011;328;50.086;8.576;2022-12-18T11:45:39;45.97;;;23.00;;
691;SDS011;328;50.086;8.576;2022-12-18T11:48:10;37.90;;;18.80;;
691;SDS011;328;50.086;8.576;2022-12-18T11:50:43;35.65;;;18.38;;
691;SDS011;328;50.086;8.576;2022-12-18T11:53:13;37.88;;;19.45;;
691;SDS011;328;50.086;8.576;2022-12-18T11:55:47;41.25;;;20.17;;
691;SDS011;328;50.086;8.576;2022-12-18T11:58:20;47.60;;;21.85;;
691;SDS011;328;50.086;8.576;2022-12-18T12:01:07;43.13;;;21.02;;
691;SDS011;328;50.086;8.576;2022-12-18T12:03:49;42.35;;;20.38;;
691;SDS011;328;50.086;8.576;2022-12-18T12:06:24;57.10;;;26.05;;
691;SDS011;328;50.086;8.576;2022-12-18T12:08:59;38.08;;;19.10;;
691;SDS011;328;50.086;8.576;2022-12-18T12:11:36;41.22;;;20.77;;
691;SDS011;328;50.086;8.576;2022-12-18T12:14:10;41.50;;;18.92;;
691;SDS011;328;50.086;8.576;2022-12-18T12:16:45;38.58;;;19.10;;
691;SDS011;328;50.086;8.576;2022-12-18T12:19:20;38.60;;;20.05;;
691;SDS011;328;50.086;8.576;2022-12-18T12:21:58;49.40;;;22.75;;
691;SDS011;328;50.086;8.576;2022-12-18T12:24:37;36.67;;;18.88;;
691;SDS011;328;50.086;8.576;2022-12-18T12:27:13;47.10;;;18.63;;
691;SDS011;328;50.086;8.576;2022-12-18T12:29:50;42.35;;;20.38;;
691;SDS011;328;50.086;8.576;2022-12-18T12:32:27;41.63;;;18.67;;
691;SDS011;328;50.086;8.576;2022-12-18T12:35:06;40.10;;;16.67;;
691;SDS011;328;50.086;8.576;2022-12-18T12:37:44;37.25;;;20.75;;
691;SDS011;328;50.086;8.576;2022-12-18T12:40:20;37.05;;;17.88;;
691;SDS011;328;50.086;8.576;2022-12-18T12:43:16;37.40;;;17.83;;
691;SDS011;328;50.086;8.576;2022-12-18T12:45:49;41.58;;;18.30;;
691;SDS011;328;50.086;8.576;2022-12-18T12:48:24;40.42;;;18.70;;
691;SDS011;328;50.086;8.576;2022-12-18T12:51:00;40.55;;;17.80;;
691;SDS011;328;50.086;8.576;2022-12-18T12:53:31;49.38;;;17.92;;
691;SDS011;328;50.086;8.576;2022-12-18T12:56:01;40.78;;;19.85;;
691;SDS011;328;50.086;8.576;2022-12-18T12:58:34;45.85;;;17.35;;
691;SDS011;328;50.086;8.576;2022-12-18T13:01:08;46.25;;;19.27;;
691;SDS011;328;50.086;8.576;2022-12-18T13:03:41;38.10;;;17.45;;
691;SDS011;328;50.086;8.576;2022-12-18T13:06:16;36.78;;;17.83;;
691;SDS011;328;50.086;8.576;2022-12-18T13:08:55;32.70;;;17.17;;
691;SDS011;328;50.086;8.576;2022-12-18T13:11:28;36.63;;;17.77;;
691;SDS011;328;50.086;8.576;2022-12-18T13:14:28;32.72;;;17.70;;
691;SDS011;328;50.086;8.576;2022-12-18T13:20:02;37.55;;;16.65;;
691;SDS011;328;50.086;8.576;2022-12-18T13:22:35;42.25;;;19.38;;
691;SDS011;328;50.086;8.576;2022-12-18T13:28:05;35.25;;;18.23;;
691;SDS011;328;50.086;8.576;2022-12-18T13:30:43;36.13;;;17.50;;
691;SDS011;328;50.086;8.576;2022-12-18T13:33:34;52.45;;;18.10;;
691;SDS011;328;50.086;8.576;2022-12-18T13:36:33;43.67;;;20.67;;
691;SDS011;328;50.086;8.576;2022-12-18T13:39:11;71.88;;;32.97;;
691;SDS011;328;50.086;8.576;2022-12-18T13:45:41;38.78;;;17.17;;
691;SDS011;328;50.086;8.576;2022-12-18T13:48:20;33.70;;;18.38;;
691;SDS011;328;50.086;8.576;2022-12-18T13:50:52;32.28;;;17.58;;
691;SDS011;328;50.086;8.576;2022-12-18T13:53:26;37.40;;;17.20;;
691;SDS011;328;50.086;8.576;2022-12-18T13:55:56;43.20;;;17.60;;
691;SDS011;328;50.086;8.576;2022-12-18T13:58:23;34.53;;;15.98;;
691;SDS011;328;50.086;8.576;2022-12-18T14:00:53;33.92;;;14.73;;
691;SDS011;328;50.086;8.576;2022-12-18T14:03:21;32.80;;;18.13;;
691;SDS011;328;50.086;8.576;2022-12-18T14:05:53;38.85;;;19.23;;
691;SDS011;328;50.086;8.576;2022-12-18T14:08:27;36.97;;;19.17;;
691;SDS011;328;50.086;8.576;2022-12-18T14:11:03;38.58;;;18.55;;
691;SDS011;328;50.086;8.576;2022-12-18T14:13:33;31.60;;;15.85;;
691;SDS011;328;50.086;8.576;2022-12-18T14:16:12;32.58;;;16.08;;
691;SDS011;328;50.086;8.576;2022-12-18T14:18:43;35.03;;;15.82;;
691;SDS011;328;50.086;8.576;2022-12-18T14:21:17;41.60;;;18.30;;
691;SDS011;328;50.086;8.576;2022-12-18T14:23:46;39.88;;;20.15;;
691;SDS011;328;50.086;8.576;2022-12-18T14:26:20;34.30;;;17.50;;
691;SDS011;328;50.086;8.576;2022-12-18T14:28:49;42.22;;;17.90;;
691;SDS011;328;50.086;8.576;2022-12-18T14:31:19;39.92;;;18.77;;
691;SDS011;328;50.086;8.576;2022-12-18T14:33:47;42.30;;;19.38;;
691;SDS011;328;50.086;8.576;2022-12-18T14:36:16;28.17;;;16.35;;
691;SDS011;328;50.086;8.576;2022-12-18T14:38:48;37.28;;;19.50;;
691;SDS011;328;50.086;8.576;2022-12-18T14:41:17;35.30;;;20.42;;
691;SDS011;328;50.086;8.576;2022-12-18T14:43:46;31.90;;;15.60;;
691;SDS011;328;50.086;8.576;2022-12-18T14:46:27;33.85;;;16.88;;
691;SDS011;328;50.086;8.576;2022-12-18T14:48:59;35.55;;;20.00;;
691;SDS011;328;50.086;8.576;2022-12-18T14:51:35;39.92;;;20.88;;
691;SDS011;328;50.086;8.576;2022-12-18T14:54:16;40.60;;;20.75;;
691;SDS011;328;50.086;8.576;2022-12-18T14:57:05;38.03;;;19.50;;
691;SDS011;328;50.086;8.576;2022-12-18T15:00:03;44.65;;;22.75;;
691;SDS011;328;50.086;8.576;2022-12-18T15:02:49;36.70;;;20.00;;
691;SDS011;328;50.086;8.576;2022-12-18T15:05:36;29.40;;;16.85;;
691;SDS011;328;50.086;8.576;2022-12-18T15:14:28;32.55;;;17.60;;
691;SDS011;328;50.086;8.576;2022-12-18T15:17:26;37.92;;;19.92;;
691;SDS011;328;50.086;8.576;2022-12-18T15:20:00;39.85;;;19.05;;
691;SDS011;328;50.086;8.576;2022-12-18T15:22:35;31.33;;;15.60;;
691;SDS011;328;50.086;8.576;2022-12-18T15:25:03;41.90;;;17.20;;
691;SDS011;328;50.086;8.576;2022-12-18T15:27:51;37.63;;;19.23;;
691;SDS011;328;50.086;8.576;2022-12-18T15:30:22;39.45;;;18.27;;
691;SDS011;328;50.086;8.576;2022-12-18T15:35:57;55.90;;;23.48;;
691;SDS011;328;50.086;8.576;2022-12-18T15:38:47;41.40;;;20.65;;
691;SDS011;328;50.086;8.576;2022-12-18T15:41:23;38.97;;;17.48;;
691;SDS011;328;50.086;8.576;2022-12-18T15:43:54;48.30;;;24.67;;
691;SDS011;328;50.086;8.576;2022-12-18T15:46:23;38.10;;;21.45;;
691;SDS011;328;50.086;8.576;2022-12-18T15:48:53;36.83;;;19.83;;
691;SDS011;328;50.086;8.576;2022-12-18T15:54:45;33.60;;;17.42;;
691;SDS011;328;50.086;8.576;2022-12-18T15:57:30;33.13;;;15.88;;
691;SDS011;328;50.086;8.576;2022-12-18T15:59:59;39.90;;;19.50;;
691;SDS011;328;50.086;8.576;2022-12-18T16:02:29;32.83;;;17.08;;
691;SDS011;328;50.086;8.576;2022-12-18T16:05:00;35.35;;;16.65;;
691;SDS011;328;50.086;8.576;2022-12-18T16:07:29;30.40;;;16.00;;
691;SDS011;328;50.086;8.576;2022-12-18T16:09:57;36.97;;;17.00;;